Time;durP1;ratioP1;P1;durP2;ratioP2;P2;SDS_P1;SDS_P2;PMS_P1;PMS_P2;Temp;Humidity;BMP_temperature;BMP_pressure;BME280_temperature;BME280_humidity;BME280_pressure;Samples;Min_cycle;Max_cycle;Signal;HPM_P1;HPM_P2
2021/09/15 00:02:02;;;;;;;2.75;0.68;;;;;;;;;;5035132;28;20017;-70
2021/09/15 00:04:29;;;;;;;2.70;0.25;;;;;;;;;;5033239;28;20017;-70
2021/09/15 00:06:56;;;;;;;3.78;0.28;;;;;;;;;;5036569;28;20030;-71
2021/09/15 00:09:23;;;;;;;2.08;0.60;;;;;;;;;;5025931;28;20025;-70
2021/09/15 00:11:50;;;;;;;2.92;0.30;;;;;;;;;;5028897;28;20501;-70
2021/09/15 00:14:18;;;;;;;2.00;0.20;;;;;;;;;;5027501;28;20479;-70
2021/09/15 00:16:45;;;;;;;3.03;0.30;;;;;;;;;;5014870;28;20069;-71
2021/09/15 00:19:12;;;;;;;3.13;0.30;;;;;;;;;;5040843;28;20033;-70
2021/09/15 00:21:39;;;;;;;6.43;0.68;;;;;;;;;;5026762;28;20046;-72
2021/09/15 00:24:06;;;;;;;2.00;0.30;;;;;;;;;;5027746;28;20020;-70
2021/09/15 00:26:33;;;;;;;3.65;0.10;;;;;;;;;;5026234;28;20038;-70
2021/09/15 00:29:01;;;;;;;1.42;0.32;;;;;;;;;;5031909;28;20505;-70
2021/09/15 00:31:28;;;;;;;2.75;0.20;;;;;;;;;;5030080;28;20026;-71
2021/09/15 00:33:55;;;;;;;1.65;0.28;;;;;;;;;;5031326;28;20446;-71
2021/09/15 00:36:22;;;;;;;1.58;0.22;;;;;;;;;;5032119;28;20036;-71
2021/09/15 00:38:49;;;;;;;1.90;0.17;;;;;;;;;;5035865;28;20462;-72
2021/09/15 00:41:16;;;;;;;1.88;0.10;;;;;;;;;;5038731;28;20021;-71
2021/09/15 00:43:59;;;;;;;1.63;0.20;;;;;;;;;;5034323;28;20087;-70
2021/09/15 00:46:27;;;;;;;5.95;0.50;;;;;;;;;;5032329;28;20029;-70
2021/09/15 00:48:54;;;;;;;5.13;0.52;;;;;;;;;;5031535;28;20076;-70
2021/09/15 00:51:21;;;;;;;8.60;0.65;;;;;;;;;;5031591;28;20563;-71
2021/09/15 00:53:49;;;;;;;1.90;0.22;;;;;;;;;;5027885;28;20022;-70
2021/09/15 00:56:16;;;;;;;3.90;0.63;;;;;;;;;;5035114;28;20143;-70
2021/09/15 00:58:43;;;;;;;1.70;0.30;;;;;;;;;;5032335;28;20553;-70
2021/09/15 01:01:11;;;;;;;1.33;0.30;;;;;;;;;;5024466;28;20396;-70
2021/09/15 01:03:38;;;;;;;3.38;0.30;;;;;;;;;;5034594;28;20512;-71
2021/09/15 01:06:06;;;;;;;5.15;0.45;;;;;;;;;;5037661;28;20041;-70
2021/09/15 01:08:34;;;;;;;2.00;0.15;;;;;;;;;;5027780;28;20032;-72
2021/09/15 01:11:02;;;;;;;2.17;0.35;;;;;;;;;;5032559;28;20140;-69
2021/09/15 01:13:29;;;;;;;2.22;0.30;;;;;;;;;;5025819;28;20028;-69
2021/09/15 01:15:56;;;;;;;1.60;0.17;;;;;;;;;;5027469;28;20034;-69
2021/09/15 01:18:23;;;;;;;2.08;0.28;;;;;;;;;;5029041;28;20200;-70
2021/09/15 01:20:50;;;;;;;1.42;0.10;;;;;;;;;;5028569;28;20060;-70
2021/09/15 01:23:18;;;;;;;5.63;0.40;;;;;;;;;;5028449;28;20113;-71
2021/09/15 01:25:45;;;;;;;3.38;0.60;;;;;;;;;;5032118;28;20025;-72
2021/09/15 01:28:12;;;;;;;3.55;0.50;;;;;;;;;;5023607;28;20536;-71
2021/09/15 01:30:40;;;;;;;2.10;0.30;;;;;;;;;;5031001;28;20035;-73
2021/09/15 01:33:11;;;;;;;2.08;0.30;;;;;;;;;;5027441;28;20017;-71
2021/09/15 01:35:38;;;;;;;5.00;0.40;;;;;;;;;;5031393;28;20045;-72
2021/09/15 01:38:05;;;;;;;2.00;0.45;;;;;;;;;;5032934;28;20431;-71
2021/09/15 01:40:33;;;;;;;1.83;0.30;;;;;;;;;;5033101;28;20028;-72
2021/09/15 01:43:00;;;;;;;2.72;0.55;;;;;;;;;;5032101;28;20080;-71
2021/09/15 01:45:27;;;;;;;4.07;1.05;;;;;;;;;;5034515;28;20026;-70
2021/09/15 01:47:54;;;;;;;3.33;0.40;;;;;;;;;;5032978;28;20034;-71
2021/09/15 01:50:22;;;;;;;3.15;0.60;;;;;;;;;;5030372;28;20048;-71
2021/09/15 01:52:49;;;;;;;2.80;0.20;;;;;;;;;;5031817;28;20509;-73
2021/09/15 01:55:20;;;;;;;4.25;0.40;;;;;;;;;;5032480;28;20037;-71
2021/09/15 01:57:47;;;;;;;2.15;0.30;;;;;;;;;;5031901;28;20025;-72
2021/09/15 02:00:14;;;;;;;6.57;0.70;;;;;;;;;;5032457;28;20021;-71
2021/09/15 02:02:42;;;;;;;2.00;0.52;;;;;;;;;;5029347;28;20053;-72
2021/09/15 02:05:09;;;;;;;5.78;0.43;;;;;;;;;;5018388;28;20057;-73
2021/09/15 02:07:36;;;;;;;2.28;0.30;;;;;;;;;;5028204;28;20645;-73
2021/09/15 02:10:06;;;;;;;4.88;0.40;;;;;;;;;;5032262;28;20053;-73
2021/09/15 02:12:34;;;;;;;2.17;0.45;;;;;;;;;;5028629;28;20032;-71
2021/09/15 02:15:01;;;;;;;1.77;0.47;;;;;;;;;;5022283;28;20030;-73
2021/09/15 02:17:28;;;;;;;3.53;0.35;;;;;;;;;;5012495;28;20474;-73
2021/09/15 02:19:55;;;;;;;5.00;0.30;;;;;;;;;;5032382;28;20049;-72
2021/09/15 02:22:23;;;;;;;3.50;0.22;;;;;;;;;;5019896;28;20320;-73
2021/09/15 02:24:50;;;;;;;3.80;0.30;;;;;;;;;;5030393;28;20029;-72
2021/09/15 02:27:17;;;;;;;2.53;0.40;;;;;;;;;;5030065;28;20486;-71
2021/09/15 02:29:44;;;;;;;0.93;0.10;;;;;;;;;;5027721;28;20027;-72
2021/09/15 02:32:11;;;;;;;1.65;0.20;;;;;;;;;;5031848;28;20334;-72
2021/09/15 02:34:38;;;;;;;1.92;0.40;;;;;;;;;;5032106;28;20022;-72
2021/09/15 02:37:05;;;;;;;2.55;0.30;;;;;;;;;;5033132;28;20072;-70
2021/09/15 02:39:32;;;;;;;4.82;0.50;;;;;;;;;;5031465;28;20101;-72
2021/09/15 02:41:59;;;;;;;2.75;0.20;;;;;;;;;;5033430;28;20101;-71
2021/09/15 02:44:27;;;;;;;3.95;0.40;;;;;;;;;;5031330;28;20042;-71
2021/09/15 02:46:54;;;;;;;0.50;0.10;;;;;;;;;;5031634;28;20021;-72
2021/09/15 02:49:27;;;;;;;4.57;0.57;;;;;;;;;;5030298;28;20029;-71
2021/09/15 02:51:54;;;;;;;2.35;0.75;;;;;;;;;;5031446;28;20030;-72
2021/09/15 02:54:21;;;;;;;3.70;0.28;;;;;;;;;;5030780;28;20140;-72
2021/09/15 02:56:48;;;;;;;3.15;0.50;;;;;;;;;;5033244;28;20033;-70
2021/09/15 02:59:16;;;;;;;3.53;0.22;;;;;;;;;;5015496;28;20026;-73
2021/09/15 03:01:43;;;;;;;3.72;0.80;;;;;;;;;;5021791;28;20017;-72
2021/09/15 03:04:10;;;;;;;1.88;0.50;;;;;;;;;;5030315;28;20116;-72
2021/09/15 03:06:37;;;;;;;1.95;0.40;;;;;;;;;;5031551;28;20040;-72
2021/09/15 03:09:05;;;;;;;7.00;0.82;;;;;;;;;;5031071;28;20029;-71
2021/09/15 03:11:33;;;;;;;3.55;0.30;;;;;;;;;;5030444;28;20033;-72
2021/09/15 03:14:00;;;;;;;2.83;0.38;;;;;;;;;;5028631;28;20025;-72
2021/09/15 03:16:30;;;;;;;2.53;0.47;;;;;;;;;;5016554;28;20045;-71
2021/09/15 03:18:57;;;;;;;1.42;0.20;;;;;;;;;;5027194;28;20025;-70
2021/09/15 03:21:24;;;;;;;3.63;0.82;;;;;;;;;;5029279;28;20056;-72
2021/09/15 03:23:51;;;;;;;4.43;0.50;;;;;;;;;;5020713;28;20040;-72
2021/09/15 03:26:18;;;;;;;2.78;0.30;;;;;;;;;;5035872;28;20036;-73
2021/09/15 03:28:45;;;;;;;3.92;0.47;;;;;;;;;;5035681;28;20024;-72
2021/09/15 03:31:12;;;;;;;2.83;0.20;;;;;;;;;;5049983;28;20550;-71
2021/09/15 03:33:39;;;;;;;1.83;0.30;;;;;;;;;;5023132;28;20044;-73
2021/09/15 03:36:07;;;;;;;1.30;0.17;;;;;;;;;;5029356;28;20555;-75
2021/09/15 03:38:34;;;;;;;3.22;0.30;;;;;;;;;;5025334;28;20021;-72
2021/09/15 03:41:01;;;;;;;4.22;0.22;;;;;;;;;;5021444;28;20128;-74
2021/09/15 03:43:28;;;;;;;1.38;0.30;;;;;;;;;;5026823;28;20027;-74
2021/09/15 03:45:55;;;;;;;3.03;0.40;;;;;;;;;;5025689;28;20556;-74
2021/09/15 03:48:23;;;;;;;1.80;0.22;;;;;;;;;;5027860;28;20033;-74
2021/09/15 03:50:50;;;;;;;3.53;0.30;;;;;;;;;;5030997;28;20482;-74
2021/09/15 03:53:17;;;;;;;3.78;0.22;;;;;;;;;;5029684;28;20026;-74
2021/09/15 03:55:44;;;;;;;1.38;0.30;;;;;;;;;;5030737;28;20055;-68
2021/09/15 03:58:11;;;;;;;3.53;0.38;;;;;;;;;;5037744;28;20037;-69
2021/09/15 04:00:38;;;;;;;5.93;0.50;;;;;;;;;;5038537;28;20120;-69
2021/09/15 04:03:05;;;;;;;3.20;0.30;;;;;;;;;;5037980;28;20022;-68
2021/09/15 04:05:33;;;;;;;3.55;0.30;;;;;;;;;;5039448;28;20116;-68
2021/09/15 04:08:00;;;;;;;8.77;0.40;;;;;;;;;;5038455;28;20080;-69
2021/09/15 04:10:27;;;;;;;3.17;0.43;;;;;;;;;;5032439;28;20018;-69
2021/09/15 04:12:54;;;;;;;3.35;0.40;;;;;;;;;;5030814;28;20025;-69
2021/09/15 04:15:21;;;;;;;5.05;0.45;;;;;;;;;;5024099;28;20104;-69
2021/09/15 04:17:48;;;;;;;4.93;0.52;;;;;;;;;;5023548;28;20044;-69
2021/09/15 04:20:16;;;;;;;7.03;0.82;;;;;;;;;;4945892;28;2466742;-69
2021/09/15 04:22:44;;;;;;;1.30;0.32;;;;;;;;;;5031749;28;20021;-69
2021/09/15 04:33:27;;;;;;;3.63;0.40;;;;;;;;;;5023310;28;20056;-73
2021/09/15 04:35:55;;;;;;;3.55;0.30;;;;;;;;;;5031966;28;20072;-72
2021/09/15 04:38:22;;;;;;;5.05;1.05;;;;;;;;;;5031823;28;20474;-74
2021/09/15 04:40:49;;;;;;;4.50;0.82;;;;;;;;;;5029150;28;20029;-73
2021/09/15 04:43:16;;;;;;;3.35;0.60;;;;;;;;;;5032162;28;20018;-73
2021/09/15 04:45:43;;;;;;;5.30;0.60;;;;;;;;;;5029038;28;20488;-72
2021/09/15 04:48:10;;;;;;;2.08;0.30;;;;;;;;;;5025108;28;20061;-72
2021/09/15 04:50:37;;;;;;;2.20;0.50;;;;;;;;;;5031216;28;20105;-72
2021/09/15 04:53:04;;;;;;;5.25;0.60;;;;;;;;;;5017675;28;20064;-70
2021/09/15 04:55:33;;;;;;;5.00;0.43;;;;;;;;;;5026479;28;20026;-72
2021/09/15 04:58:00;;;;;;;5.35;0.60;;;;;;;;;;5032313;28;20032;-72
2021/09/15 05:00:28;;;;;;;5.25;0.60;;;;;;;;;;5032391;28;20076;-70
2021/09/15 05:02:55;;;;;;;6.78;0.50;;;;;;;;;;5030629;28;20510;-70
2021/09/15 05:05:22;;;;;;;5.65;0.30;;;;;;;;;;5032431;28;20024;-68
2021/09/15 05:07:49;;;;;;;1.55;0.30;;;;;;;;;;5034486;28;20021;-69
2021/09/15 05:10:16;;;;;;;5.20;0.43;;;;;;;;;;5031087;28;20030;-71
2021/09/15 05:12:43;;;;;;;3.58;0.47;;;;;;;;;;5025062;28;20037;-70
2021/09/15 05:15:11;;;;;;;4.35;0.82;;;;;;;;;;5030477;28;20116;-70
2021/09/15 05:17:38;;;;;;;3.30;0.50;;;;;;;;;;5026271;28;20032;-70
2021/09/15 05:20:05;;;;;;;2.30;0.40;;;;;;;;;;5035964;28;20107;-70
2021/09/15 05:22:32;;;;;;;2.75;0.30;;;;;;;;;;5034250;28;20036;-69
2021/09/15 05:24:59;;;;;;;8.30;0.40;;;;;;;;;;5030750;28;20079;-70
2021/09/15 05:27:26;;;;;;;7.40;0.88;;;;;;;;;;5022430;28;20056;-70
2021/09/15 05:29:53;;;;;;;3.42;0.55;;;;;;;;;;5034792;28;20038;-72
2021/09/15 05:32:21;;;;;;;5.70;0.35;;;;;;;;;;5031955;28;20029;-70
2021/09/15 05:34:48;;;;;;;6.15;0.30;;;;;;;;;;5026986;28;20030;-71
2021/09/15 05:37:15;;;;;;;1.98;0.20;;;;;;;;;;5018249;28;20037;-70
2021/09/15 05:39:42;;;;;;;3.78;0.30;;;;;;;;;;5021327;28;20033;-70
2021/09/15 05:42:09;;;;;;;2.33;0.38;;;;;;;;;;5034159;28;20513;-69
2021/09/15 05:44:36;;;;;;;4.97;0.45;;;;;;;;;;5031977;28;20494;-70
2021/09/15 05:47:03;;;;;;;4.47;0.75;;;;;;;;;;5024915;28;20048;-71
2021/09/15 05:49:30;;;;;;;3.83;0.25;;;;;;;;;;5030635;28;20025;-71
2021/09/15 05:51:58;;;;;;;10.63;1.55;;;;;;;;;;5032993;28;20028;-69
2021/09/15 05:54:25;;;;;;;2.13;0.43;;;;;;;;;;5034373;28;20025;-69
2021/09/15 05:56:52;;;;;;;3.67;0.60;;;;;;;;;;5029304;28;20073;-70
2021/09/15 05:59:19;;;;;;;4.57;0.50;;;;;;;;;;5016359;28;20513;-70
2021/09/15 06:01:46;;;;;;;2.30;0.30;;;;;;;;;;5014837;28;20029;-70
2021/09/15 06:04:13;;;;;;;8.35;0.60;;;;;;;;;;5013240;28;20494;-69
2021/09/15 06:06:40;;;;;;;5.45;0.30;;;;;;;;;;5034133;28;20061;-69
2021/09/15 06:09:07;;;;;;;4.38;0.50;;;;;;;;;;5034435;28;20080;-69
2021/09/15 06:11:35;;;;;;;3.42;0.30;;;;;;;;;;5034301;28;20071;-70
2021/09/15 06:14:02;;;;;;;4.53;0.50;;;;;;;;;;5026695;28;20048;-70
2021/09/15 06:16:29;;;;;;;3.85;0.63;;;;;;;;;;5018287;28;20060;-69
2021/09/15 06:18:56;;;;;;;3.15;0.52;;;;;;;;;;5017963;28;20155;-69
2021/09/15 06:21:23;;;;;;;4.93;0.40;;;;;;;;;;5030432;28;20094;-70
2021/09/15 06:23:52;;;;;;;5.43;0.43;;;;;;;;;;5027770;28;20030;-69
2021/09/15 06:26:23;;;;;;;2.22;0.30;;;;;;;;;;5014343;28;20026;-69
2021/09/15 06:28:51;;;;;;;5.15;0.50;;;;;;;;;;5012895;28;20491;-69
2021/09/15 06:31:18;;;;;;;3.83;0.50;;;;;;;;;;5013918;28;20477;-68
2021/09/15 06:33:45;;;;;;;4.15;0.57;;;;;;;;;;5014231;28;20371;-68
2021/09/15 06:36:12;;;;;;;5.22;0.98;;;;;;;;;;5030755;28;20032;-69
2021/09/15 06:38:42;;;;;;;4.78;0.68;;;;;;;;;;5032225;28;20022;-67
2021/09/15 06:41:09;;;;;;;5.10;0.80;;;;;;;;;;5033563;28;20508;-69
2021/09/15 06:43:36;;;;;;;7.22;0.98;;;;;;;;;;5033750;28;20511;-69
2021/09/15 06:46:03;;;;;;;3.35;0.55;;;;;;;;;;5031652;28;20394;-68
2021/09/15 06:48:30;;;;;;;3.67;0.40;;;;;;;;;;5033065;28;20485;-69
2021/09/15 06:50:57;;;;;;;7.88;0.77;;;;;;;;;;5032607;28;20091;-70
2021/09/15 06:53:25;;;;;;;5.05;0.40;;;;;;;;;;5044781;28;20025;-69
2021/09/15 06:55:52;;;;;;;4.82;0.40;;;;;;;;;;5029370;28;20092;-70
2021/09/15 06:58:19;;;;;;;6.88;0.88;;;;;;;;;;5033416;28;20079;-69
2021/09/15 07:00:47;;;;;;;4.47;0.35;;;;;;;;;;5033035;28;20087;-70
2021/09/15 07:03:15;;;;;;;3.30;0.30;;;;;;;;;;5033164;28;20035;-70
2021/09/15 07:05:42;;;;;;;4.40;0.63;;;;;;;;;;5033085;28;20030;-70
2021/09/15 07:08:10;;;;;;;6.22;1.10;;;;;;;;;;5031902;28;20037;-68
2021/09/15 07:10:39;;;;;;;4.85;0.80;;;;;;;;;;5030033;28;20053;-70
2021/09/15 07:13:07;;;;;;;8.48;0.73;;;;;;;;;;5031277;28;20021;-71
2021/09/15 07:15:34;;;;;;;9.00;0.93;;;;;;;;;;5032650;28;20040;-70
2021/09/15 07:18:01;;;;;;;3.67;0.43;;;;;;;;;;5031130;28;20021;-69
2021/09/15 07:20:28;;;;;;;6.63;0.50;;;;;;;;;;5030799;28;20413;-70
2021/09/15 07:22:55;;;;;;;3.92;0.50;;;;;;;;;;5030116;28;20026;-70
2021/09/15 07:25:23;;;;;;;2.72;0.30;;;;;;;;;;5031110;28;20580;-69
2021/09/15 07:27:50;;;;;;;3.53;0.50;;;;;;;;;;5034034;28;20521;-69
2021/09/15 07:30:18;;;;;;;3.30;0.40;;;;;;;;;;5031294;28;20198;-69
2021/09/15 07:32:45;;;;;;;5.25;0.85;;;;;;;;;;5033534;28;20009;-69
2021/09/15 07:35:13;;;;;;;5.15;1.27;;;;;;;;;;5029322;28;20490;-69
2021/09/15 07:37:40;;;;;;;6.00;1.25;;;;;;;;;;5033153;28;20036;-70
2021/09/15 07:40:08;;;;;;;3.25;0.88;;;;;;;;;;5031184;28;20025;-70
2021/09/15 07:42:36;;;;;;;6.97;1.48;;;;;;;;;;5031445;28;20021;-70
2021/09/15 07:45:03;;;;;;;4.35;0.40;;;;;;;;;;5028162;28;20113;-69
2021/09/15 07:47:31;;;;;;;5.82;0.57;;;;;;;;;;5032362;28;20021;-70
2021/09/15 07:49:58;;;;;;;5.53;0.52;;;;;;;;;;5036991;28;20021;-66
2021/09/15 07:52:25;;;;;;;5.63;0.88;;;;;;;;;;5042161;28;20109;-66
2021/09/15 07:54:52;;;;;;;5.60;0.90;;;;;;;;;;5040706;28;20021;-66
2021/09/15 07:57:20;;;;;;;6.88;0.73;;;;;;;;;;5039484;28;20459;-66
2021/09/15 07:59:47;;;;;;;2.83;0.52;;;;;;;;;;5037687;28;20025;-66
2021/09/15 08:02:14;;;;;;;6.53;0.77;;;;;;;;;;5036432;28;20022;-66
2021/09/15 08:04:41;;;;;;;4.50;0.95;;;;;;;;;;5038446;28;20018;-66
2021/09/15 08:07:08;;;;;;;7.53;0.65;;;;;;;;;;5036725;28;20133;-66
2021/09/15 08:09:35;;;;;;;8.00;0.70;;;;;;;;;;5038680;28;20018;-66
2021/09/15 08:12:03;;;;;;;12.30;1.70;;;;;;;;;;5038645;28;20075;-67
2021/09/15 08:14:30;;;;;;;7.22;0.70;;;;;;;;;;5034037;28;20017;-70
2021/09/15 08:16:57;;;;;;;6.07;0.63;;;;;;;;;;5030957;28;20418;-70
2021/09/15 08:19:26;;;;;;;5.22;0.50;;;;;;;;;;5030580;28;20021;-69
2021/09/15 08:21:54;;;;;;;6.95;1.35;;;;;;;;;;5031350;28;20045;-70
2021/09/15 08:24:22;;;;;;;7.78;0.95;;;;;;;;;;5031707;28;20053;-70
2021/09/15 08:26:49;;;;;;;9.23;0.73;;;;;;;;;;5030918;28;20083;-70
2021/09/15 08:29:16;;;;;;;5.78;1.25;;;;;;;;;;5029928;28;20029;-70
2021/09/15 08:31:43;;;;;;;7.82;0.88;;;;;;;;;;5030318;28;20056;-69
2021/09/15 08:34:10;;;;;;;10.75;1.98;;;;;;;;;;5030687;28;20018;-70
2021/09/15 08:36:38;;;;;;;7.60;1.30;;;;;;;;;;5032188;28;20494;-69
2021/09/15 08:39:05;;;;;;;5.45;0.50;;;;;;;;;;5029894;28;20037;-70
2021/09/15 08:41:32;;;;;;;5.18;1.52;;;;;;;;;;5029920;28;20030;-70
2021/09/15 08:43:59;;;;;;;6.88;0.65;;;;;;;;;;5030765;28;20036;-69
2021/09/15 08:46:27;;;;;;;8.20;0.80;;;;;;;;;;5030587;28;20033;-69
2021/09/15 08:48:58;;;;;;;3.03;0.75;;;;;;;;;;5030514;28;20367;-68
2021/09/15 08:51:25;;;;;;;5.15;0.43;;;;;;;;;;5032989;28;20025;-68
2021/09/15 08:53:53;;;;;;;8.80;0.47;;;;;;;;;;5034775;28;20032;-68
2021/09/15 08:56:21;;;;;;;6.63;1.25;;;;;;;;;;5035111;28;20041;-68
2021/09/15 08:58:48;;;;;;;8.75;0.85;;;;;;;;;;5033645;28;20132;-69
2021/09/15 09:01:17;;;;;;;4.43;0.68;;;;;;;;;;5033463;28;20036;-69
2021/09/15 09:03:45;;;;;;;33.97;9.55;;;;;;;;;;5036965;28;20041;-70
2021/09/15 09:06:14;;;;;;;17.00;5.88;;;;;;;;;;5036905;28;20037;-67
2021/09/15 09:08:42;;;;;;;5.32;1.63;;;;;;;;;;5035564;28;20108;-69
2021/09/15 09:11:09;;;;;;;5.70;0.98;;;;;;;;;;5034557;28;20112;-69
2021/09/15 09:13:46;;;;;;;5.32;0.80;;;;;;;;;;5033916;28;20127;-69
2021/09/15 09:16:13;;;;;;;2.95;0.80;;;;;;;;;;5035131;28;20131;-69
2021/09/15 09:18:57;;;;;;;3.08;0.40;;;;;;;;;;5035926;28;20025;-68
2021/09/15 09:21:28;;;;;;;5.90;0.88;;;;;;;;;;5034356;28;20042;-69
2021/09/15 09:23:59;;;;;;;4.45;0.70;;;;;;;;;;5034151;28;20428;-69
2021/09/15 09:26:44;;;;;;;6.32;0.88;;;;;;;;;;5028200;28;20034;-68
2021/09/15 09:29:16;;;;;;;6.68;0.75;;;;;;;;;;5035262;28;20502;-69
2021/09/15 09:31:53;;;;;;;4.72;0.85;;;;;;;;;;5033104;28;20048;-69
2021/09/15 09:34:20;;;;;;;8.23;1.17;;;;;;;;;;5028885;28;20030;-69
2021/09/15 09:37:03;;;;;;;6.10;0.57;;;;;;;;;;5033093;28;20061;-69
2021/09/15 09:39:38;;;;;;;10.23;1.48;;;;;;;;;;5026465;28;20044;-67
2021/09/15 09:42:05;;;;;;;;;;;;;;;;;;5034518;28;20501;-68
2021/09/15 09:44:32;;;;;;;5.53;0.50;;;;;;;;;;5034215;28;19909;-68
2021/09/15 09:47:18;;;;;;;3.13;0.47;;;;;;;;;;5034464;28;20083;-68
2021/09/15 09:50:07;;;;;;;5.55;0.98;;;;;;;;;;5034008;28;20017;-68
2021/09/15 09:52:51;;;;;;;7.05;1.13;;;;;;;;;;5030637;28;20036;-68
2021/09/15 09:55:19;;;;;;;6.97;0.82;;;;;;;;;;5035097;28;20022;-68
2021/09/15 09:57:50;;;;;;;5.82;0.75;;;;;;;;;;5035676;28;20115;-67
2021/09/15 10:00:18;;;;;;;7.65;0.95;;;;;;;;;;5034942;28;20095;-68
2021/09/15 10:02:45;;;;;;;5.80;0.70;;;;;;;;;;5032354;28;20033;-69
2021/09/15 10:05:14;;;;;;;6.80;0.60;;;;;;;;;;5033908;28;20433;-69
2021/09/15 10:07:43;;;;;;;7.57;0.60;;;;;;;;;;5034232;28;20056;-69
2021/09/15 10:10:14;;;;;;;5.63;0.70;;;;;;;;;;5034565;28;20060;-69
2021/09/15 10:12:41;;;;;;;8.38;1.00;;;;;;;;;;5035415;28;20021;-70
2021/09/15 10:15:09;;;;;;;9.05;2.30;;;;;;;;;;5035591;28;20029;-70
2021/09/15 10:17:37;;;;;;;5.53;0.95;;;;;;;;;;5032926;28;20021;-69
2021/09/15 10:20:08;;;;;;;3.78;0.60;;;;;;;;;;5030946;28;20041;-69
2021/09/15 10:22:41;;;;;;;5.32;0.40;;;;;;;;;;5025948;28;20037;-70
2021/09/15 10:25:09;;;;;;;6.82;0.90;;;;;;;;;;5031947;28;20033;-70
2021/09/15 10:27:54;;;;;;;3.90;0.73;;;;;;;;;;5026634;28;20438;-70
2021/09/15 10:30:21;;;;;;;5.68;0.55;;;;;;;;;;5029618;28;20689;-69
2021/09/15 10:32:50;;;;;;;4.53;0.40;;;;;;;;;;5031413;28;20489;-70
2021/09/15 10:35:37;;;;;;;4.20;0.57;;;;;;;;;;5034368;28;20581;-71
2021/09/15 10:38:05;;;;;;;6.05;1.50;;;;;;;;;;5019006;28;20114;-70
2021/09/15 10:40:32;;;;;;;5.25;0.70;;;;;;;;;;5032152;28;20041;-71
2021/09/15 10:43:00;;;;;;;5.65;1.00;;;;;;;;;;5033733;28;20497;-71
2021/09/15 10:45:29;;;;;;;7.97;0.75;;;;;;;;;;5032424;28;20477;-71
2021/09/15 10:47:58;;;;;;;5.88;0.70;;;;;;;;;;5033463;28;20025;-70
2021/09/15 10:50:33;;;;;;;7.50;1.05;;;;;;;;;;5033186;28;20117;-70
2021/09/15 10:53:16;;;;;;;6.95;0.50;;;;;;;;;;5032529;28;20030;-73
2021/09/15 10:55:54;;;;;;;3.67;1.23;;;;;;;;;;5030593;28;20038;-71
2021/09/15 10:58:23;;;;;;;8.00;0.65;;;;;;;;;;5033219;28;20424;-71
2021/09/15 11:00:54;;;;;;;3.35;0.65;;;;;;;;;;5033022;28;20040;-71
2021/09/15 11:03:35;;;;;;;4.15;0.60;;;;;;;;;;5028633;28;20025;-71
2021/09/15 11:06:08;;;;;;;3.42;0.50;;;;;;;;;;5032103;28;20597;-70
2021/09/15 11:08:35;;;;;;;4.57;0.68;;;;;;;;;;5031590;28;20478;-71
2021/09/15 11:11:03;;;;;;;4.32;0.90;;;;;;;;;;5032332;28;20030;-71
2021/09/15 11:13:31;;;;;;;8.55;0.85;;;;;;;;;;5032534;28;21096;-71
2021/09/15 11:16:18;;;;;;;4.57;0.88;;;;;;;;;;5031606;28;20025;-71
2021/09/15 11:18:53;;;;;;;5.00;0.70;;;;;;;;;;5029865;28;20042;-71
2021/09/15 11:21:21;;;;;;;4.95;0.88;;;;;;;;;;5019220;28;20046;-71
2021/09/15 11:23:53;;;;;;;7.78;0.70;;;;;;;;;;5031585;28;20026;-71
2021/09/15 11:26:34;;;;;;;4.78;0.82;;;;;;;;;;5029554;28;20018;-71
2021/09/15 11:29:01;;;;;;;3.78;0.98;;;;;;;;;;5029942;28;20037;-70
2021/09/15 11:31:32;;;;;;;5.07;0.70;;;;;;;;;;5030227;28;20053;-71
2021/09/15 11:34:19;;;;;;;6.63;0.75;;;;;;;;;;5029650;28;20112;-71
2021/09/15 11:36:50;;;;;;;4.68;0.70;;;;;;;;;;5031883;28;20044;-71
2021/09/15 11:39:18;;;;;;;6.90;0.90;;;;;;;;;;5017545;28;20043;-71
2021/09/15 11:41:46;;;;;;;3.88;0.63;;;;;;;;;;5031357;28;20024;-71
2021/09/15 11:44:14;;;;;;;6.47;1.67;;;;;;;;;;5030083;28;20375;-71
2021/09/15 11:46:41;;;;;;;10.85;0.68;;;;;;;;;;5029788;28;20028;-70
2021/09/15 11:49:08;;;;;;;9.00;1.50;;;;;;;;;;5030752;28;20025;-71
2021/09/15 11:51:36;;;;;;;3.03;0.70;;;;;;;;;;5030202;28;20041;-71
2021/09/15 11:59:03;;;;;;;10.70;0.73;;;;;;;;;;5031620;28;20398;-71
2021/09/15 12:01:34;;;;;;;3.35;0.50;;;;;;;;;;5031069;28;20029;-71
2021/09/15 12:04:04;;;;;;;4.22;0.50;;;;;;;;;;5031541;28;20498;-70
2021/09/15 12:06:31;;;;;;;4.18;0.52;;;;;;;;;;5032187;28;20029;-71
2021/09/15 12:08:59;;;;;;;7.53;1.92;;;;;;;;;;5029119;28;20506;-71
2021/09/15 12:11:36;;;;;;;6.97;1.67;;;;;;;;;;5030232;28;20397;-71
2021/09/15 12:14:06;;;;;;;3.45;0.70;;;;;;;;;;5030246;28;20040;-71
2021/09/15 12:16:34;;;;;;;3.30;0.52;;;;;;;;;;5029820;28;20025;-71
2021/09/15 12:19:02;;;;;;;4.97;1.05;;;;;;;;;;5030235;28;20036;-71
2021/09/15 12:21:30;;;;;;;3.97;0.60;;;;;;;;;;5025280;28;20038;-71
2021/09/15 12:24:05;;;;;;;5.05;0.90;;;;;;;;;;5015557;28;20389;-72
2021/09/15 12:26:33;;;;;;;6.50;0.80;;;;;;;;;;5030733;28;20025;-72
2021/09/15 12:29:01;;;;;;;4.05;0.73;;;;;;;;;;5031140;28;20043;-71
2021/09/15 12:31:38;;;;;;;3.55;0.40;;;;;;;;;;5031389;28;20028;-72
2021/09/15 12:34:05;;;;;;;5.13;1.00;;;;;;;;;;5029811;28;20521;-71
2021/09/15 12:36:33;;;;;;;6.03;1.23;;;;;;;;;;5029064;28;20049;-72
2021/09/15 12:39:01;;;;;;;5.13;0.68;;;;;;;;;;5030637;28;20017;-71
2021/09/15 12:41:29;;;;;;;5.20;0.60;;;;;;;;;;5031125;28;20112;-71
2021/09/15 12:44:25;;;;;;;4.25;0.60;;;;;;;;;;5031003;28;20022;-71
2021/09/15 12:46:54;;;;;;;5.35;0.57;;;;;;;;;;5029402;28;20056;-71
2021/09/15 12:49:47;;;;;;;4.25;0.60;;;;;;;;;;5030766;28;20013;-71
2021/09/15 12:52:18;;;;;;;5.55;1.27;;;;;;;;;;5027503;28;20053;-72
2021/09/15 12:54:54;;;;;;;4.68;1.45;;;;;;;;;;5023330;28;20025;-71
2021/09/15 12:57:32;;;;;;;12.43;1.35;;;;;;;;;;5031029;28;20079;-72
2021/09/15 13:00:17;;;;;;;5.30;0.70;;;;;;;;;;5030500;28;20028;-72
2021/09/15 13:02:51;;;;;;;4.82;1.02;;;;;;;;;;5029510;28;20017;-72
2021/09/15 13:05:19;;;;;;;2.50;0.60;;;;;;;;;;5031147;28;20030;-71
2021/09/15 13:07:46;;;;;;;3.50;0.93;;;;;;;;;;5031042;28;20022;-72
2021/09/15 13:10:13;;;;;;;5.35;1.05;;;;;;;;;;5025343;28;20053;-71
2021/09/15 13:12:40;;;;;;;3.55;0.60;;;;;;;;;;5026244;28;20379;-72
2021/09/15 13:15:08;;;;;;;4.25;0.70;;;;;;;;;;5027782;28;20025;-72
2021/09/15 13:17:35;;;;;;;5.85;0.60;;;;;;;;;;5030355;28;20033;-72
2021/09/15 13:20:02;;;;;;;2.38;0.60;;;;;;;;;;5026270;28;20057;-72
2021/09/15 13:22:29;;;;;;;3.38;0.80;;;;;;;;;;5030396;28;20108;-71
2021/09/15 13:24:56;;;;;;;5.05;2.15;;;;;;;;;;5023574;28;20391;-72
2021/09/15 13:27:24;;;;;;;2.88;0.75;;;;;;;;;;5029682;28;20021;-72
2021/09/15 13:29:51;;;;;;;6.25;1.00;;;;;;;;;;5030703;28;20025;-72
2021/09/15 13:32:19;;;;;;;3.83;0.70;;;;;;;;;;5030136;28;20454;-72
2021/09/15 13:34:46;;;;;;;6.25;1.30;;;;;;;;;;5028774;28;20025;-72
2021/09/15 13:37:13;;;;;;;1.67;0.55;;;;;;;;;;5030089;28;20057;-71
2021/09/15 13:39:40;;;;;;;2.30;0.50;;;;;;;;;;5033416;28;20072;-72
2021/09/15 13:42:07;;;;;;;5.07;0.75;;;;;;;;;;5034319;28;20036;-72
2021/09/15 13:44:35;;;;;;;3.95;0.90;;;;;;;;;;5034278;28;20100;-71
2021/09/15 13:47:02;;;;;;;3.85;0.95;;;;;;;;;;5034303;28;20060;-71
2021/09/15 13:49:38;;;;;;;3.10;0.70;;;;;;;;;;5033288;28;20516;-71
2021/09/15 13:52:08;;;;;;;3.17;0.80;;;;;;;;;;5033704;28;20079;-72
2021/09/15 13:54:37;;;;;;;4.07;0.70;;;;;;;;;;5033677;28;20041;-72
2021/09/15 13:57:04;;;;;;;2.33;0.60;;;;;;;;;;5033786;28;20116;-72
2021/09/15 13:59:31;;;;;;;6.22;1.30;;;;;;;;;;5034220;28;20189;-72
2021/09/15 14:01:58;;;;;;;4.03;0.93;;;;;;;;;;5033453;28;20026;-72
2021/09/15 14:04:26;;;;;;;3.05;0.70;;;;;;;;;;5031343;28;20022;-71
2021/09/15 14:06:53;;;;;;;3.92;0.82;;;;;;;;;;5033985;28;20553;-71
2021/09/15 14:09:20;;;;;;;1.48;0.57;;;;;;;;;;5029740;28;20033;-72
2021/09/15 14:11:47;;;;;;;2.45;0.60;;;;;;;;;;5026251;28;20033;-71
2021/09/15 14:14:14;;;;;;;1.60;0.80;;;;;;;;;;5033222;28;20025;-72
2021/09/15 14:16:41;;;;;;;1.20;0.40;;;;;;;;;;5014738;28;20057;-72
2021/09/15 14:19:09;;;;;;;0.90;0.40;;;;;;;;;;5030690;28;20025;-72
2021/09/15 14:21:36;;;;;;;2.58;0.68;;;;;;;;;;5025256;28;20053;-71
2021/09/15 14:24:06;;;;;;;1.73;0.80;;;;;;;;;;5033415;28;20034;-71
2021/09/15 14:26:34;;;;;;;2.22;0.90;;;;;;;;;;5033877;28;20033;-73
2021/09/15 14:29:01;;;;;;;3.58;0.98;;;;;;;;;;5032133;28;20099;-71
2021/09/15 14:31:28;;;;;;;2.30;0.65;;;;;;;;;;5033072;28;20028;-71
2021/09/15 14:33:56;;;;;;;2.60;0.65;;;;;;;;;;5032522;28;20113;-71
2021/09/15 14:36:23;;;;;;;2.88;0.90;;;;;;;;;;5031964;28;20396;-71
2021/09/15 14:38:50;;;;;;;2.10;0.50;;;;;;;;;;5033330;28;20084;-71
2021/09/15 14:41:18;;;;;;;2.75;0.70;;;;;;;;;;5032596;28;20017;-71
2021/09/15 14:43:46;;;;;;;2.03;0.50;;;;;;;;;;5033149;28;20041;-71
2021/09/15 14:46:13;;;;;;;3.88;0.60;;;;;;;;;;5033108;28;20359;-71
2021/09/15 14:48:40;;;;;;;1.42;0.80;;;;;;;;;;5030685;28;20022;-71
2021/09/15 14:51:07;;;;;;;1.33;0.73;;;;;;;;;;5032224;28;20033;-71
2021/09/15 14:53:34;;;;;;;4.88;1.00;;;;;;;;;;5031132;28;20051;-72
2021/09/15 14:56:05;;;;;;;3.65;0.90;;;;;;;;;;5032736;28;20422;-71
2021/09/15 14:58:32;;;;;;;3.65;0.90;;;;;;;;;;5030994;28;20033;-71
2021/09/15 15:01:02;;;;;;;3.28;0.80;;;;;;;;;;5031342;28;20032;-71
2021/09/15 15:03:31;;;;;;;4.70;0.88;;;;;;;;;;5029170;28;20025;-72
2021/09/15 15:05:59;;;;;;;4.38;0.60;;;;;;;;;;5029690;28;20060;-71